createdAt,value
2023-05-20T00:05:31.480Z,1125.43
2023-05-20T00:15:33.641Z,1119.95
2023-05-20T00:25:35.769Z,1112.38
2023-05-20T00:35:37.393Z,1117.93
2023-05-20T00:45:38.929Z,1119.65
2023-05-20T00:55:40.551Z,1121.53
2023-05-20T01:05:42.590Z,1109.65
2023-05-20T01:15:44.117Z,1105.13
2023-05-20T01:25:45.550Z,1103.55
2023-05-20T01:35:46.960Z,1092.97
2023-05-20T01:45:48.507Z,1093.72
2023-05-20T01:55:50.088Z,1095.85
2023-05-20T02:05:51.619Z,1096.68
2023-05-20T02:15:53.265Z,1091.10
2023-05-20T02:25:54.693Z,1089.22
2023-05-20T02:35:56.160Z,1084.68
2023-05-20T02:45:57.629Z,1070.75
2023-05-20T02:55:59.584Z,1088.95
2023-05-20T03:06:01.018Z,1075.30
2023-05-20T03:16:02.574Z,1067.57
2023-05-20T03:26:04.023Z,1073.22
2023-05-20T03:36:06.493Z,1069.75
2023-05-20T03:46:07.950Z,1073.88
2023-05-20T03:56:09.393Z,1066.03
2023-05-20T04:06:10.818Z,1071.93
2023-05-20T04:16:12.548Z,1069.55
2023-05-20T04:26:14.464Z,1062.28
2023-05-20T04:36:16.159Z,1079.53
2023-05-20T04:46:17.816Z,1071.32
2023-05-20T04:56:19.252Z,1077.20
2023-05-20T05:06:20.710Z,1077.90
2023-05-20T05:16:22.234Z,1099.63
2023-05-20T05:26:23.741Z,1108.70
2023-05-20T05:36:25.944Z,1116.82
2023-05-20T05:46:27.404Z,1127.57
2023-05-20T05:56:28.936Z,1122.82
2023-05-20T06:06:31.452Z,1136.68
2023-05-20T06:16:32.968Z,1127.57
2023-05-20T06:26:34.448Z,1134.65
2023-05-20T06:36:35.861Z,1134.93
2023-05-20T06:46:37.447Z,1161.20
2023-05-20T06:56:38.900Z,1164.30
2023-05-20T07:06:40.324Z,1173.20
2023-05-20T07:16:41.816Z,1165.63
2023-05-20T07:26:43.325Z,1156.30
2023-05-20T07:36:44.832Z,1157.88
2023-05-20T07:46:47.936Z,1194.38
2023-05-20T07:56:49.529Z,1166.82
2023-05-20T08:06:51.176Z,1183.97
2023-05-20T08:16:54.862Z,1205.80
2023-05-20T08:26:56.553Z,1187.13
2023-05-20T08:36:58.029Z,1166.38
2023-05-20T08:46:59.668Z,1182.35
2023-05-20T08:57:01.314Z,1228.35
2023-05-20T09:07:02.787Z,1230.20
2023-05-20T09:17:05.901Z,1196.43
2023-05-20T09:27:07.330Z,1154.72
2023-05-20T09:37:09.551Z,1117.70
2023-05-20T09:47:11.619Z,1095.20
2023-05-20T09:57:13.904Z,1086.50
2023-05-20T10:07:34.059Z,1105.88
2023-05-20T10:18:01.798Z,1205.18
2023-05-20T10:28:08.586Z,1110.93
2023-05-20T10:38:11.091Z,1169.32
2023-05-20T10:48:29.578Z,1202.65
2023-05-20T10:58:37.706Z,1176.47
2023-05-20T11:08:39.120Z,1130.10
2023-05-20T11:18:40.991Z,1249.10
2023-05-20T11:28:42.498Z,1147.05
2023-05-20T11:38:46.131Z,1241.97
2023-05-20T11:48:54.417Z,1172.03
2023-05-20T11:58:58.853Z,1211.30
2023-05-20T12:09:04.005Z,1179.72
2023-05-20T12:19:05.757Z,1200.13
2023-05-20T12:29:07.762Z,1250.03
2023-05-20T12:39:09.471Z,1226.78
2023-05-20T12:49:10.904Z,1255.32
2023-05-20T12:59:12.354Z,1150.22
2023-05-20T13:09:13.812Z,1159.00
2023-05-20T13:19:15.530Z,1148.40
2023-05-20T13:29:16.987Z,1186.47
2023-05-20T13:39:18.554Z,1224.38
2023-05-20T13:49:20.887Z,1241.88
2023-05-20T13:59:22.310Z,1240.90
2023-05-20T14:09:23.731Z,1116.22
2023-05-20T14:19:26.362Z,1209.25
2023-05-20T14:29:27.985Z,1244.35
2023-05-20T14:39:29.400Z,1053.50
2023-05-20T14:49:31.580Z,1058.20
2023-05-20T14:59:33.242Z,1052.22
2023-05-20T15:09:35.168Z,1105.18
2023-05-20T15:19:37.919Z,1229.03
2023-05-20T15:29:41.185Z,1249.68
2023-05-20T15:39:42.755Z,1244.88
2023-05-20T15:49:44.667Z,1177.75
2023-05-20T15:59:46.247Z,1158.95
2023-05-20T16:09:47.742Z,1251.65
2023-05-20T16:19:49.209Z,1250.10
2023-05-20T16:29:50.672Z,1239.93
2023-05-20T16:39:52.110Z,1110.82
2023-05-20T16:49:53.682Z,1102.93
2023-05-20T16:59:55.239Z,1163.72
2023-05-20T17:09:56.959Z,1232.93
2023-05-20T17:19:58.404Z,1165.65
2023-05-20T17:30:00.177Z,1237.97
2023-05-20T17:40:01.742Z,1206.10
2023-05-20T17:50:03.617Z,1234.70
2023-05-20T18:00:06.358Z,1207.78
2023-05-20T18:10:08.389Z,1231.63
2023-05-20T18:20:10.829Z,1154.85
2023-05-20T18:30:12.465Z,1157.10
2023-05-20T18:40:13.988Z,1143.25
2023-05-20T18:50:15.628Z,1203.47
2023-05-20T19:00:18.089Z,1231.60
2023-05-20T19:10:19.536Z,1205.70
2023-05-20T19:20:21.222Z,1226.80
2023-05-20T19:30:22.810Z,1225.30
2023-05-20T19:40:24.390Z,1221.03
2023-05-20T19:50:26.351Z,1217.03
2023-05-20T20:00:28.211Z,1211.88
2023-05-20T20:10:34.193Z,1209.50
2023-05-20T20:20:39.781Z,1208.32
2023-05-20T20:30:41.670Z,1197.88
2023-05-20T20:40:44.803Z,1198.57
2023-05-20T20:50:47.568Z,1187.85
2023-05-20T21:00:49.528Z,1190.15
2023-05-20T21:10:51.057Z,1183.00
2023-05-20T21:20:53.126Z,1178.35
2023-05-20T21:30:54.583Z,1176.78
2023-05-20T21:40:57.408Z,1170.10
2023-05-20T21:50:58.867Z,1176.35
2023-05-20T22:01:00.293Z,1170.72
2023-05-20T22:11:07.305Z,1169.15
2023-05-20T22:21:09.271Z,1167.10
2023-05-20T22:31:10.751Z,1166.70
2023-05-20T22:41:12.209Z,1150.38
2023-05-20T22:51:14.240Z,1148.72
2023-05-20T23:01:16.569Z,1147.25
2023-05-20T23:11:18.236Z,1150.78
2023-05-20T23:21:19.672Z,1154.22
2023-05-20T23:31:22.553Z,1155.82
2023-05-20T23:41:24.366Z,1152.68
2023-05-20T23:51:25.979Z,1144.35
